Terminal Aerodrome Forecast
Issued by NWS Greer, SC

Home | Current Version | Previous Version | Text Only | Print | Product List | Glossary On
Versions: 1 2 3 4 5 6 7 8 9 10 11 12 13 14 15 16 17 18 19 20 21 22 23 24 25 26 27 28 29 30 31 32
000
FTUS42 KGSP 210553 RRA
TAFAVL
TAF
KAVL 210553Z 2106/2206 14004KT P6SM SCT035 OVC250
     FM211200 17004KT P6SM OVC025
     FM211700 17005KT P6SM -RADZ OVC015
     FM212200 VRB03KT P6SM BKN030
     FM220200 00000KT 5SM BR OVC015=

USA.gov is the U.S. government's official web portal to all federal, state and local government web resources and services.